| time (UTC) | temp C | wind direction | speed KPH | gust KPH | rain 1hr cm | rain 24hr cm | rain mn cm | humidity % | barometer mb |
| 20260506112343 | 17 | 153 | 0.0 | 0.0 | 0.00 | 0.00 | 0.00 | ||
| 20260506110943 | 17 | 153 | 0.0 | 0.0 | 0.00 | 0.00 | 0.00 | ||
| 20260506110848 | 17 | 153 | 0.0 | 0.0 | 0.00 | 0.00 | 0.00 | ||
| 20260506105536 | -17 | 146 | 1367.9 | 0.0 | 0.00 | 0.00 | 0.00 | ||
| 20260506105502 | -17 | 146 | 1367.9 | 0.0 | 0.00 | 0.00 | 0.00 | ||
| 20260506105354 | -17 | 146 | 1367.9 | 0.0 | 0.00 | 0.00 | 0.00 | ||
| 20260506105350 | 17 | 153 | 0.0 | 0.0 | 0.00 | 0.00 | 0.00 | ||
| 20260506103855 | 17 | 166 | 1.6 | 0.0 | 0.00 | 0.00 | 0.00 | ||
| 20260506102401 | 17 | 165 | 0.0 | 0.0 | 0.00 | 0.00 | 0.00 | ||
| 20260506100906 | -17 | 146 | 1367.9 | 0.0 | 0.00 | 0.00 | 0.00 | ||
| 20260506100902 | 17 | 159 | 0.0 | 0.0 | 0.00 | 0.00 | 0.00 | ||
| 20260506095443 | 17 | 139 | 0.0 | 0.0 | 0.00 | 0.00 | 0.00 | ||
| 20260506095408 | 17 | 139 | 0.0 | 0.0 | 0.00 | 0.00 | 0.00 | ||
| 20260506093955 | 17 | 122 | 0.0 | 0.0 | 0.00 | 0.00 | 0.00 | ||
| 20260506093913 | 17 | 122 | 0.0 | 0.0 | 0.00 | 0.00 | 0.00 | ||
| 20260506092418 | -17 | 146 | 1367.9 | 0.0 | 0.00 | 0.00 | 0.00 | ||
| 20260506092415 | 16 | 153 | 0.0 | 0.0 | 0.00 | 0.00 | 0.00 | ||
| 20260506090920 | 17 | 141 | 0.0 | 0.0 | 0.00 | 0.00 | 0.00 | ||
| 20260506085425 | 16 | 83 | 0.0 | 0.0 | 0.00 | 0.00 | 0.00 | ||
| 20260506083930 | -17 | 146 | 1367.9 | 0.0 | 0.00 | 0.00 | 0.00 | ||
| 20260506083927 | 16 | 83 | 0.0 | 0.0 | 0.00 | 0.00 | 0.00 | ||
| 20260506082432 | 16 | 83 | 0.0 | 0.0 | 0.00 | 0.00 | 0.00 | ||
| 20260506080937 | 16 | 136 | 0.0 | 0.0 | 0.00 | 0.00 | 0.00 | ||
| 20260506072450 | 17 | 136 | 0.0 | 0.0 | 0.00 | 0.00 | 0.00 | ||
| 20260506070955 | -17 | 146 | 1367.9 | 0.0 | 0.00 | 0.00 | 0.00 | ||
| 20260506070951 | 18 | 136 | 0.0 | 0.0 | 0.00 | 0.00 | 0.00 | ||
| 20260506062507 | -17 | 146 | 1367.9 | 0.0 | 0.00 | 0.00 | 0.00 | ||
| 20260506062504 | 19 | 245 | 3.2 | 1.6 | 0.00 | 0.00 | 0.00 | ||
| 20260506061009 | 20 | 195 | 4.8 | 6.4 | 0.00 | 0.00 | 0.00 | ||
| 20260506051027 | 20 | 231 | 4.8 | 8.0 | 0.00 | 0.00 | 0.00 | ||
| 20260506044034 | 18 | 158 | 0.0 | 0.0 | 0.00 | 0.00 | 0.00 | ||
| 20260506042539 | 19 | 155 | 0.0 | 0.0 | 0.00 | 0.00 | 0.00 | ||
| 20260506041044 | -17 | 146 | 1367.9 | 0.0 | 0.00 | 0.00 | 0.00 | ||
| 20260506041041 | 19 | 158 | 0.0 | 0.0 | 0.00 | 0.00 | 0.00 | ||
| 20260506035546 | 18 | 104 | 0.0 | 0.0 | 0.00 | 0.00 | 0.00 | ||
| 20260506034051 | 18 | 104 | 0.0 | 0.0 | 0.00 | 0.00 | 0.00 | ||
| 20260506032557 | -17 | 146 | 1367.9 | 0.0 | 0.00 | 0.00 | 0.00 | ||
| 20260506032553 | 18 | 143 | 0.0 | 0.0 | 0.00 | 0.00 | 0.00 | ||
| 20260506031058 | 18 | 143 | 0.0 | 0.0 | 0.00 | 0.00 | 0.00 | ||
| 20260506025604 | 18 | 143 | 0.0 | 0.0 | 0.00 | 0.00 | 0.00 | ||
| 20260506024109 | -17 | 146 | 1367.9 | 0.0 | 0.00 | 0.00 | 0.00 | ||
| 20260506024106 | 19 | 143 | 0.0 | 0.0 | 0.00 | 0.00 | 0.00 | ||
| 20260506022611 | 20 | 143 | 0.0 | 0.0 | 0.00 | 0.00 | 0.00 | ||
| 20260506021116 | 21 | 143 | 0.0 | 0.0 | 0.00 | 0.00 | 0.00 | ||
| 20260506015622 | -17 | 146 | 1367.9 | 0.0 | 0.00 | 0.00 | 0.00 | ||
| 20260506015618 | 21 | 150 | 0.0 | 0.0 | 0.00 | 0.00 | 0.00 | ||
| 20260506014123 | 22 | 169 | 3.2 | 1.6 | 0.00 | 0.00 | 0.00 | ||
| 20260506012629 | 22 | 179 | 0.0 | 0.0 | 0.00 | 0.00 | 0.00 | ||
| 20260506011134 | -17 | 146 | 1367.9 | 0.0 | 0.00 | 0.00 | 0.00 | ||
| 20260506011130 | 22 | 173 | 0.0 | 0.0 | 0.00 | 0.00 | 0.00 | ||
| 20260506005636 | 22 | 190 | 0.0 | 0.0 | 0.00 | 0.00 | 0.00 | ||
| 20260506004141 | 23 | 224 | 3.2 | 3.2 | 0.00 | 0.00 | 0.00 | ||
| 20260506002647 | -17 | 146 | 1367.9 | 0.0 | 0.00 | 0.00 | 0.00 | ||
| 20260506002643 | 23 | 180 | 0.0 | 0.0 | 0.00 | 0.00 | 0.00 | ||
| 20260506001148 | 24 | 188 | 1.6 | 3.2 | 0.00 | 0.00 | 0.00 | ||
| 20260505235654 | 25 | 176 | 6.4 | 3.2 | 0.00 | 0.00 | 0.00 | ||
| 20260505234159 | -17 | 146 | 1367.9 | 0.0 | 0.00 | 0.00 | 0.00 | ||
| 20260505234155 | 25 | 201 | 3.2 | 3.2 | 0.00 | 0.00 | 0.00 | ||
| 20260505232701 | 26 | 207 | 8.0 | 17.7 | 0.00 | 0.00 | 0.00 | ||
| 20260505231206 | 26 | 240 | 3.2 | 6.4 | 0.00 | 0.00 | 0.00 | ||
| 20260505225711 | -17 | 146 | 1367.9 | 0.0 | 0.00 | 0.00 | 0.00 | ||
| 20260505225708 | 26 | 152 | 6.4 | 11.3 | 0.00 | 0.00 | 0.00 | ||
| 20260505224213 | 26 | 252 | 8.0 | 6.4 | 0.00 | 0.00 | 0.00 | ||
| 20260505222719 | 26 | 86 | 6.4 | 6.4 | 0.00 | 0.00 | 0.00 | ||
| 20260505221224 | -17 | 146 | 1367.9 | 0.0 | 0.00 | 0.00 | 0.00 | ||
| 20260505221220 | 26 | 124 | 6.4 | 1.6 | 0.00 | 0.00 | 0.00 | ||
| 20260505215726 | 26 | 194 | 6.4 | 9.7 | 0.00 | 0.00 | 0.00 | ||
| 20260505214231 | 26 | 146 | 4.8 | 8.0 | 0.00 | 0.00 | 0.00 | ||
| 20260505212737 | -17 | 146 | 1367.9 | 0.0 | 0.00 | 0.00 | 0.00 | ||
| 20260505212733 | 26 | 142 | 6.4 | 4.8 | 0.00 | 0.00 | 0.00 | ||
| 20260505211238 | 26 | 173 | 9.7 | 4.8 | 0.00 | 0.00 | 0.00 | ||
| 20260505205744 | 26 | 176 | 8.0 | 1.6 | 0.00 | 0.00 | 0.00 | ||
| 20260505204249 | -17 | 146 | 1367.9 | 0.0 | 0.00 | 0.00 | 0.00 | ||
| 20260505204245 | 26 | 242 | 8.0 | 6.4 | 0.00 | 0.00 | 0.00 | ||
| 20260505202751 | 26 | 187 | 6.4 | 3.2 | 0.00 | 0.00 | 0.00 | ||
| 20260505201256 | 27 | 174 | 8.0 | 9.7 | 0.00 | 0.00 | 0.00 | ||
| 20260505195802 | -17 | 146 | 1367.9 | 0.0 | 0.00 | 0.00 | 0.00 | ||
| 20260505195758 | 26 | 170 | 9.7 | 6.4 | 0.00 | 0.00 | 0.00 | ||
| 20260505194303 | 26 | 195 | 8.0 | 3.2 | 0.00 | 0.00 | 0.00 | ||
| 20260505192809 | 26 | 142 | 9.7 | 6.4 | 0.00 | 0.00 | 0.00 | ||
| 20260505191314 | -17 | 146 | 1367.9 | 0.0 | 0.00 | 0.00 | 0.00 | ||
| 20260505191310 | 26 | 197 | 9.7 | 9.7 | 0.00 | 0.00 | 0.00 | ||
| 20260505185816 | 26 | 173 | 6.4 | 4.8 | 0.00 | 0.00 | 0.00 | ||
| 20260505184321 | 26 | 86 | 4.8 | 3.2 | 0.00 | 0.00 | 0.00 | ||
| 20260505182827 | -17 | 146 | 1367.9 | 0.0 | 0.00 | 0.00 | 0.00 | ||
| 20260505182823 | 26 | 186 | 6.4 | 8.0 | 0.00 | 0.00 | 0.00 | ||
| 20260505181328 | 26 | 148 | 6.4 | 4.8 | 0.00 | 0.00 | 0.00 | ||
| 20260505175834 | 26 | 176 | 9.7 | 6.4 | 0.00 | 0.00 | 0.00 | ||
| 20260505174339 | -17 | 146 | 1367.9 | 0.0 | 0.00 | 0.00 | 0.00 | ||
| 20260505174336 | 25 | 269 | 9.7 | 6.4 | 0.00 | 0.00 | 0.00 | ||
| 20260505172841 | 25 | 184 | 4.8 | 4.8 | 0.00 | 0.00 | 0.00 | ||
| 20260505171346 | 25 | 104 | 9.7 | 9.7 | 0.00 | 0.00 | 0.00 | ||
| 20260505165852 | -17 | 146 | 1367.9 | 0.0 | 0.00 | 0.00 | 0.00 | ||
| 20260505165848 | 25 | 114 | 11.3 | 17.7 | 0.00 | 0.00 | 0.00 | ||
| 20260505164353 | 24 | 200 | 4.8 | 3.2 | 0.00 | 0.00 | 0.00 | ||
| 20260505162859 | 24 | 167 | 4.8 | 4.8 | 0.00 | 0.00 | 0.00 | ||
| 20260505161404 | -17 | 146 | 1367.9 | 0.0 | 0.00 | 0.00 | 0.00 | ||
| 20260505161400 | 24 | 166 | 1.6 | 3.2 | 0.00 | 0.00 | 0.00 | ||
| 20260505152916 | -17 | 146 | 1367.9 | 0.0 | 0.00 | 0.00 | 0.00 | ||
| 20260505152913 | 22 | 193 | 8.0 | 9.7 | 0.00 | 0.00 | 0.00 | ||
| 20260505151418 | 22 | 172 | 4.8 | 3.2 | 0.00 | 0.00 | 0.00 | ||
| 20260505124500 | 16 | 180 | 6.4 | 4.8 | 0.00 | 0.00 | 0.00 | ||
| 20260505123005 | -17 | 146 | 1367.9 | 0.0 | 0.00 | 0.00 | 0.00 | ||
| 20260505123001 | 16 | 214 | 3.2 | 9.7 | 0.00 | 0.00 | 0.00 | ||
| 20260505121507 | 15 | 91 | 0.0 | 0.0 | 0.00 | 0.00 | 0.00 | ||
| 20260505120012 | 15 | 173 | 1.6 | 3.2 | 0.00 | 0.00 | 0.00 | ||
| 20260505114517 | -17 | 146 | 1367.9 | 0.0 | 0.00 | 0.00 | 0.00 | ||
| 20260505114513 | 14 | 219 | 3.2 | 6.4 | 0.00 | 0.00 | 0.00 | ||
| 20260505113018 | 13 | 163 | 1.6 | 0.0 | 0.00 | 0.00 | 0.00 |